sensor_id;sensor_type;location;lat;lon;timestamp;pressure;altitude;pressure_sealevel;temperature;humidity
48267;BME280;34088;52.232;5.196;2023-08-01T00:02:17;99908.00;;;16.27;87.37
48267;BME280;34088;52.232;5.196;2023-08-01T00:04:42;99917.91;;;16.35;87.16
48267;BME280;34088;52.232;5.196;2023-08-01T00:07:07;99917.81;;;16.36;87.28
48267;BME280;34088;52.232;5.196;2023-08-01T00:09:33;99908.16;;;16.37;87.06
48267;BME280;34088;52.232;5.196;2023-08-01T00:11:58;99905.19;;;16.30;87.73
48267;BME280;34088;52.232;5.196;2023-08-01T00:14:23;99913.84;;;16.31;87.96
48267;BME280;34088;52.232;5.196;2023-08-01T00:16:51;99909.91;;;16.25;88.25
48267;BME280;34088;52.232;5.196;2023-08-01T00:32:54;99897.81;;;16.24;89.14
48267;BME280;34088;52.232;5.196;2023-08-01T00:35:20;99898.63;;;16.25;89.36
48267;BME280;34088;52.232;5.196;2023-08-01T00:37:46;99889.47;;;16.19;89.67
48267;BME280;34088;52.232;5.196;2023-08-01T00:40:11;99888.63;;;16.19;89.50
48267;BME280;34088;52.232;5.196;2023-08-01T00:42:37;99876.50;;;16.18;89.64
48267;BME280;34088;52.232;5.196;2023-08-01T00:45:04;99870.56;;;16.16;89.61
48267;BME280;34088;52.232;5.196;2023-08-01T00:47:29;99868.06;;;16.14;89.77
48267;BME280;34088;52.232;5.196;2023-08-01T00:49:54;99868.91;;;16.15;89.25
48267;BME280;34088;52.232;5.196;2023-08-01T00:52:20;99860.03;;;16.17;88.82
48267;BME280;34088;52.232;5.196;2023-08-01T00:54:45;99853.34;;;16.13;89.61
48267;BME280;34088;52.232;5.196;2023-08-01T00:57:11;99845.41;;;16.15;89.48
48267;BME280;34088;52.232;5.196;2023-08-01T00:59:36;99846.00;;;16.18;89.03
48267;BME280;34088;52.232;5.196;2023-08-01T01:02:02;99846.72;;;16.20;88.56
48267;BME280;34088;52.232;5.196;2023-08-01T01:04:27;99844.66;;;16.13;88.95
48267;BME280;34088;52.232;5.196;2023-08-01T01:07:00;99845.63;;;16.12;88.93
48267;BME280;34088;52.232;5.196;2023-08-01T01:09:29;99842.50;;;16.07;89.29
48267;BME280;34088;52.232;5.196;2023-08-01T01:11:54;99850.94;;;16.10;89.43
48267;BME280;34088;52.232;5.196;2023-08-01T01:14:19;99848.34;;;16.10;88.96
48267;BME280;34088;52.232;5.196;2023-08-01T01:16:45;99850.03;;;16.11;88.93
48267;BME280;34088;52.232;5.196;2023-08-01T01:19:10;99845.72;;;16.10;89.15
48267;BME280;34088;52.232;5.196;2023-08-01T01:21:37;99844.06;;;16.09;88.85
48267;BME280;34088;52.232;5.196;2023-08-01T01:24:04;99846.66;;;16.09;89.08
48267;BME280;34088;52.232;5.196;2023-08-01T01:26:32;99848.16;;;16.01;89.04
48267;BME280;34088;52.232;5.196;2023-08-01T01:28:58;99839.38;;;16.02;89.20
48267;BME280;34088;52.232;5.196;2023-08-01T01:31:23;99838.78;;;15.98;89.16
48267;BME280;34088;52.232;5.196;2023-08-01T01:33:49;99841.53;;;15.97;89.24
48267;BME280;34088;52.232;5.196;2023-08-01T01:36:14;99837.72;;;16.01;89.02
48267;BME280;34088;52.232;5.196;2023-08-01T01:38:39;99837.13;;;15.97;89.26
48267;BME280;34088;52.232;5.196;2023-08-01T01:41:04;99829.06;;;16.00;88.88
48267;BME280;34088;52.232;5.196;2023-08-01T01:43:30;99837.22;;;15.96;88.88
48267;BME280;34088;52.232;5.196;2023-08-01T01:45:55;99833.78;;;15.95;88.94
48267;BME280;34088;52.232;5.196;2023-08-01T01:48:20;99838.28;;;15.93;88.98
48267;BME280;34088;52.232;5.196;2023-08-01T01:50:45;99839.13;;;15.94;89.24
48267;BME280;34088;52.232;5.196;2023-08-01T01:53:10;99841.84;;;15.92;88.97
48267;BME280;34088;52.232;5.196;2023-08-01T01:55:36;99843.13;;;15.87;89.03
48267;BME280;34088;52.232;5.196;2023-08-01T01:58:01;99839.47;;;15.89;88.82
48267;BME280;34088;52.232;5.196;2023-08-01T02:00:26;99834.78;;;15.82;89.06
48267;BME280;34088;52.232;5.196;2023-08-01T02:02:51;99830.09;;;15.74;89.32
48267;BME280;34088;52.232;5.196;2023-08-01T02:05:17;99821.56;;;15.72;89.53
48267;BME280;34088;52.232;5.196;2023-08-01T02:07:42;99825.84;;;15.73;89.11
48267;BME280;34088;52.232;5.196;2023-08-01T02:10:07;99830.09;;;15.74;89.42
48267;BME280;34088;52.232;5.196;2023-08-01T02:12:33;99823.47;;;15.70;89.19
48267;BME280;34088;52.232;5.196;2023-08-01T02:15:00;99824.28;;;15.71;89.13
48267;BME280;34088;52.232;5.196;2023-08-01T02:17:25;99825.84;;;15.73;88.93
48267;BME280;34088;52.232;5.196;2023-08-01T02:19:51;99824.16;;;15.72;89.11
48267;BME280;34088;52.232;5.196;2023-08-01T02:22:16;99832.50;;;15.77;89.34
48267;BME280;34088;52.232;5.196;2023-08-01T02:24:42;99828.72;;;15.81;89.38
48267;BME280;34088;52.232;5.196;2023-08-01T02:27:07;99830.16;;;15.85;88.77
48267;BME280;34088;52.232;5.196;2023-08-01T02:29:32;99832.78;;;15.85;88.51
48267;BME280;34088;52.232;5.196;2023-08-01T02:31:57;99823.41;;;15.83;89.12
48267;BME280;34088;52.232;5.196;2023-08-01T02:34:23;99827.56;;;15.85;89.36
48267;BME280;34088;52.232;5.196;2023-08-01T02:36:48;99826.50;;;15.88;89.56
48267;BME280;34088;52.232;5.196;2023-08-01T02:39:13;99838.50;;;15.90;89.34
48267;BME280;34088;52.232;5.196;2023-08-01T02:41:38;99832.56;;;15.88;89.54
48267;BME280;34088;52.232;5.196;2023-08-01T02:44:04;99828.06;;;15.90;88.73
48267;BME280;34088;52.232;5.196;2023-08-01T02:46:29;99822.13;;;15.88;89.86
48267;BME280;34088;52.232;5.196;2023-08-01T02:48:55;99827.06;;;15.80;89.44
48267;BME280;34088;52.232;5.196;2023-08-01T02:51:20;99838.94;;;15.84;88.88
48267;BME280;34088;52.232;5.196;2023-08-01T02:53:45;99834.94;;;15.91;88.28
48267;BME280;34088;52.232;5.196;2023-08-01T02:56:10;99838.00;;;15.85;88.69
48267;BME280;34088;52.232;5.196;2023-08-01T02:58:36;99821.31;;;15.75;89.40
48267;BME280;34088;52.232;5.196;2023-08-01T03:01:01;99824.88;;;15.74;89.43
48267;BME280;34088;52.232;5.196;2023-08-01T03:03:27;99827.28;;;15.77;89.73
48267;BME280;34088;52.232;5.196;2023-08-01T03:05:52;99818.72;;;15.75;89.79
48267;BME280;34088;52.232;5.196;2023-08-01T03:08:17;99813.91;;;15.82;89.43
48267;BME280;34088;52.232;5.196;2023-08-01T03:10:43;99812.94;;;15.83;89.60
48267;BME280;34088;52.232;5.196;2023-08-01T03:13:09;99811.41;;;15.80;89.47
48267;BME280;34088;52.232;5.196;2023-08-01T03:15:34;99812.13;;;15.82;89.61
48267;BME280;34088;52.232;5.196;2023-08-01T03:17:59;99820.78;;;15.83;89.63
48267;BME280;34088;52.232;5.196;2023-08-01T03:20:24;99819.84;;;15.84;89.41
48267;BME280;34088;52.232;5.196;2023-08-01T03:22:50;99819.84;;;15.84;89.00
48267;BME280;34088;52.232;5.196;2023-08-01T03:25:15;99822.94;;;15.89;88.64
48267;BME280;34088;52.232;5.196;2023-08-01T03:27:41;99826.16;;;15.92;88.75
48267;BME280;34088;52.232;5.196;2023-08-01T03:30:06;99829.13;;;15.88;89.50
48267;BME280;34088;52.232;5.196;2023-08-01T03:32:35;99820.78;;;15.83;89.81
48267;BME280;34088;52.232;5.196;2023-08-01T03:35:03;99810.94;;;15.86;89.50
48267;BME280;34088;52.232;5.196;2023-08-01T03:37:28;99816.91;;;15.88;89.47
48267;BME280;34088;52.232;5.196;2023-08-01T03:39:54;99812.00;;;15.84;89.57
48267;BME280;34088;52.232;5.196;2023-08-01T03:42:19;99818.06;;;15.84;88.90
48267;BME280;34088;52.232;5.196;2023-08-01T03:44:44;99814.00;;;15.80;89.46
48267;BME280;34088;52.232;5.196;2023-08-01T03:47:09;99814.50;;;15.85;89.61
48267;BME280;34088;52.232;5.196;2023-08-01T03:49:35;99825.06;;;15.84;89.38
48267;BME280;34088;52.232;5.196;2023-08-01T03:52:00;99822.78;;;15.79;89.53
48267;BME280;34088;52.232;5.196;2023-08-01T03:54:25;99822.78;;;15.79;89.86
48267;BME280;34088;52.232;5.196;2023-08-01T03:56:51;99824.44;;;15.80;89.71
48267;BME280;34088;52.232;5.196;2023-08-01T03:59:17;99832.28;;;15.80;90.15
48267;BME280;34088;52.232;5.196;2023-08-01T04:01:43;99833.84;;;15.83;90.13
48267;BME280;34088;52.232;5.196;2023-08-01T04:04:08;99834.28;;;15.77;90.04
48267;BME280;34088;52.232;5.196;2023-08-01T04:06:33;99832.16;;;15.82;90.02
48267;BME280;34088;52.232;5.196;2023-08-01T04:08:59;99817.47;;;15.81;89.99
48267;BME280;34088;52.232;5.196;2023-08-01T04:11:25;99822.56;;;15.82;90.55
48267;BME280;34088;52.232;5.196;2023-08-01T04:13:51;99824.00;;;15.86;90.27
48267;BME280;34088;52.232;5.196;2023-08-01T04:16:16;99824.84;;;15.87;90.55
48267;BME280;34088;52.232;5.196;2023-08-01T04:18:41;99819.91;;;15.95;90.12
48267;BME280;34088;52.232;5.196;2023-08-01T04:21:08;99826.16;;;15.92;90.33
48267;BME280;34088;52.232;5.196;2023-08-01T04:23:34;99827.13;;;15.91;90.12
48267;BME280;34088;52.232;5.196;2023-08-01T04:25:59;99817.28;;;15.95;90.58
48267;BME280;34088;52.232;5.196;2023-08-01T04:28:25;99819.63;;;15.87;91.01
48267;BME280;34088;52.232;5.196;2023-08-01T04:30:50;99812.06;;;15.95;90.64
48267;BME280;34088;52.232;5.196;2023-08-01T04:33:16;99816.22;;;15.97;90.64
48267;BME280;34088;52.232;5.196;2023-08-01T04:35:41;99819.44;;;16.01;90.01
48267;BME280;34088;52.232;5.196;2023-08-01T04:38:06;99815.44;;;16.08;89.88
48267;BME280;34088;52.232;5.196;2023-08-01T04:40:33;99811.56;;;16.13;88.89
48267;BME280;34088;52.232;5.196;2023-08-01T04:42:58;99810.88;;;16.22;89.08
48267;BME280;34088;52.232;5.196;2023-08-01T04:45:24;99811.13;;;16.19;89.16
48267;BME280;34088;52.232;5.196;2023-08-01T04:47:49;99811.63;;;16.24;90.16
48267;BME280;34088;52.232;5.196;2023-08-01T04:50:14;99817.09;;;16.32;89.42
48267;BME280;34088;52.232;5.196;2023-08-01T04:52:39;99815.53;;;16.30;89.46
48267;BME280;34088;52.232;5.196;2023-08-01T04:55:05;99823.56;;;16.39;89.04
48267;BME280;34088;52.232;5.196;2023-08-01T04:57:30;99825.66;;;16.34;89.27
48267;BME280;34088;52.232;5.196;2023-08-01T04:59:55;99829.34;;;16.32;89.37
48267;BME280;34088;52.232;5.196;2023-08-01T05:02:21;99829.44;;;16.30;89.40
48267;BME280;34088;52.232;5.196;2023-08-01T05:04:46;99837.50;;;16.27;89.51
48267;BME280;34088;52.232;5.196;2023-08-01T05:07:11;99830.59;;;16.26;89.26
48267;BME280;34088;52.232;5.196;2023-08-01T05:09:36;99834.66;;;16.30;89.12
48267;BME280;34088;52.232;5.196;2023-08-01T05:12:01;99834.44;;;16.33;89.86
48267;BME280;34088;52.232;5.196;2023-08-01T05:14:27;99832.66;;;16.34;89.98
48267;BME280;34088;52.232;5.196;2023-08-01T05:16:52;99823.78;;;16.36;89.74
48267;BME280;34088;52.232;5.196;2023-08-01T05:19:17;99829.09;;;16.35;89.49
48267;BME280;34088;52.232;5.196;2023-08-01T05:21:42;99827.50;;;16.45;88.92
48267;BME280;34088;52.232;5.196;2023-08-01T05:24:08;99826.38;;;16.36;89.01
48267;BME280;34088;52.232;5.196;2023-08-01T05:26:33;99828.56;;;16.42;89.18
48267;BME280;34088;52.232;5.196;2023-08-01T05:28:58;99828.81;;;16.50;88.84
48267;BME280;34088;52.232;5.196;2023-08-01T05:31:23;99833.09;;;16.51;88.59
48267;BME280;34088;52.232;5.196;2023-08-01T05:33:49;99832.88;;;16.54;88.97
48267;BME280;34088;52.232;5.196;2023-08-01T05:36:14;99829.78;;;16.49;88.67
48267;BME280;34088;52.232;5.196;2023-08-01T05:38:39;99831.44;;;16.50;88.37
48267;BME280;34088;52.232;5.196;2023-08-01T05:41:04;99834.19;;;16.49;88.22
48267;BME280;34088;52.232;5.196;2023-08-01T05:43:30;99840.22;;;16.49;88.45
48267;BME280;34088;52.232;5.196;2023-08-01T05:45:55;99837.72;;;16.48;88.38
48267;BME280;34088;52.232;5.196;2023-08-01T05:48:21;99838.09;;;16.54;88.54
48267;BME280;34088;52.232;5.196;2023-08-01T05:50:46;99838.09;;;16.54;88.65
48267;BME280;34088;52.232;5.196;2023-08-01T05:53:11;99840.56;;;16.45;88.19
48267;BME280;34088;52.232;5.196;2023-08-01T05:55:36;99844.94;;;16.44;87.82
48267;BME280;34088;52.232;5.196;2023-08-01T05:58:02;99849.69;;;16.39;87.56
48267;BME280;34088;52.232;5.196;2023-08-01T06:00:27;99856.59;;;16.51;87.57
48267;BME280;34088;52.232;5.196;2023-08-01T06:02:52;99856.00;;;16.48;87.40
48267;BME280;34088;52.232;5.196;2023-08-01T06:05:18;99856.75;;;16.50;87.76
48267;BME280;34088;52.232;5.196;2023-08-01T06:07:43;99853.28;;;16.49;87.64
48267;BME280;34088;52.232;5.196;2023-08-01T06:10:08;99849.84;;;16.49;87.48
48267;BME280;34088;52.232;5.196;2023-08-01T06:12:34;99861.84;;;16.51;87.02
48267;BME280;34088;52.232;5.196;2023-08-01T06:15:00;99863.88;;;16.59;87.69
48267;BME280;34088;52.232;5.196;2023-08-01T06:17:25;99858.09;;;16.66;87.31
48267;BME280;34088;52.232;5.196;2023-08-01T06:19:50;99863.88;;;16.59;86.96
48267;BME280;34088;52.232;5.196;2023-08-01T06:22:17;99871.28;;;16.65;87.13
48267;BME280;34088;52.232;5.196;2023-08-01T06:24:42;99875.22;;;16.70;87.37
48267;BME280;34088;52.232;5.196;2023-08-01T06:27:07;99871.66;;;16.71;86.74
48267;BME280;34088;52.232;5.196;2023-08-01T06:29:33;99871.56;;;16.73;86.00
48267;BME280;34088;52.232;5.196;2023-08-01T06:31:58;99881.41;;;16.80;85.98
48267;BME280;34088;52.232;5.196;2023-08-01T06:34:23;99873.47;;;16.82;85.54
48267;BME280;34088;52.232;5.196;2023-08-01T06:36:50;99884.50;;;16.85;85.03
48267;BME280;34088;52.232;5.196;2023-08-01T06:39:15;99884.44;;;16.98;85.83
48267;BME280;34088;52.232;5.196;2023-08-01T06:41:40;99889.44;;;17.12;84.92
48267;BME280;34088;52.232;5.196;2023-08-01T06:44:06;99887.41;;;17.15;84.06
48267;BME280;34088;52.232;5.196;2023-08-01T06:46:31;99880.78;;;17.11;82.86
48267;BME280;34088;52.232;5.196;2023-08-01T06:48:56;99881.59;;;17.12;83.61
48267;BME280;34088;52.232;5.196;2023-08-01T06:51:21;99879.84;;;17.23;83.26
48267;BME280;34088;52.232;5.196;2023-08-01T06:53:47;99885.56;;;17.28;82.50
48267;BME280;34088;52.232;5.196;2023-08-01T06:56:12;99878.19;;;17.33;82.94
48267;BME280;34088;52.232;5.196;2023-08-01T06:58:37;99876.75;;;17.29;82.61
48267;BME280;34088;52.232;5.196;2023-08-01T07:01:03;99873.75;;;17.23;82.88
48267;BME280;34088;52.232;5.196;2023-08-01T07:03:28;99882.22;;;17.37;82.24
48267;BME280;34088;52.232;5.196;2023-08-01T07:05:53;99880.47;;;17.38;82.18
48267;BME280;34088;52.232;5.196;2023-08-01T07:08:19;99883.19;;;17.47;81.67
48267;BME280;34088;52.232;5.196;2023-08-01T07:10:47;99886.66;;;17.48;80.62
48267;BME280;34088;52.232;5.196;2023-08-01T07:13:13;99886.88;;;17.56;81.31
48267;BME280;34088;52.232;5.196;2023-08-01T07:15:38;99888.56;;;17.57;80.13
48267;BME280;34088;52.232;5.196;2023-08-01T07:18:03;99888.91;;;17.41;81.88
48267;BME280;34088;52.232;5.196;2023-08-01T07:20:29;99892.09;;;17.34;82.66
48267;BME280;34088;52.232;5.196;2023-08-01T07:22:54;99892.19;;;17.32;82.41
48267;BME280;34088;52.232;5.196;2023-08-01T07:25:19;99896.47;;;17.11;81.48
48267;BME280;34088;52.232;5.196;2023-08-01T07:27:45;99906.69;;;17.14;83.16
48267;BME280;34088;52.232;5.196;2023-08-01T07:30:11;99924.38;;;17.00;84.13
48267;BME280;34088;52.232;5.196;2023-08-01T07:32:36;99900.91;;;16.76;85.43
48267;BME280;34088;52.232;5.196;2023-08-01T07:35:05;99899.56;;;16.71;85.14
48267;BME280;34088;52.232;5.196;2023-08-01T07:37:33;99897.28;;;16.66;85.74
48267;BME280;34088;52.232;5.196;2023-08-01T07:39:58;99903.97;;;16.70;86.27
48267;BME280;34088;52.232;5.196;2023-08-01T07:42:24;99896.34;;;16.67;85.76
48267;BME280;34088;52.232;5.196;2023-08-01T07:44:49;99910.75;;;16.73;86.11
48267;BME280;34088;52.232;5.196;2023-08-01T07:47:14;99896.31;;;16.91;86.65
48267;BME280;34088;52.232;5.196;2023-08-01T07:49:39;99908.31;;;16.93;85.80
48267;BME280;34088;52.232;5.196;2023-08-01T07:52:05;99907.75;;;17.12;85.97
48267;BME280;34088;52.232;5.196;2023-08-01T07:54:30;99905.69;;;17.39;85.20
48267;BME280;34088;52.232;5.196;2023-08-01T07:56:55;99915.16;;;17.29;85.51
48267;BME280;34088;52.232;5.196;2023-08-01T07:59:21;99924.88;;;17.16;86.55
48267;BME280;34088;52.232;5.196;2023-08-01T08:01:46;99923.22;;;16.80;86.37
48267;BME280;34088;52.232;5.196;2023-08-01T08:04:11;99919.16;;;16.65;87.38
48267;BME280;34088;52.232;5.196;2023-08-01T08:06:38;99936.69;;;16.52;86.87
48267;BME280;34088;52.232;5.196;2023-08-01T08:09:03;99929.50;;;16.43;86.66
48267;BME280;34088;52.232;5.196;2023-08-01T08:11:28;99930.84;;;16.49;86.94
48267;BME280;34088;52.232;5.196;2023-08-01T08:13:54;99925.47;;;16.74;87.16
48267;BME280;34088;52.232;5.196;2023-08-01T08:16:19;99927.41;;;16.83;87.02
48267;BME280;34088;52.232;5.196;2023-08-01T08:18:44;99929.09;;;16.84;87.04
48267;BME280;34088;52.232;5.196;2023-08-01T08:21:09;99928.63;;;16.90;86.65
48267;BME280;34088;52.232;5.196;2023-08-01T08:23:35;99933.75;;;17.02;87.41
48267;BME280;34088;52.232;5.196;2023-08-01T08:26:00;99935.88;;;16.97;86.65
48267;BME280;34088;52.232;5.196;2023-08-01T08:28:29;99934.59;;;17.03;85.55
48267;BME280;34088;52.232;5.196;2023-08-01T08:30:58;99933.44;;;17.18;84.34
48267;BME280;34088;52.232;5.196;2023-08-01T08:33:23;99924.19;;;17.36;84.48
48267;BME280;34088;52.232;5.196;2023-08-01T08:35:49;99929.59;;;17.45;83.06
48267;BME280;34088;52.232;5.196;2023-08-01T08:38:14;99934.94;;;17.44;83.30
48267;BME280;34088;52.232;5.196;2023-08-01T08:40:41;99928.06;;;17.54;83.84
48267;BME280;34088;52.232;5.196;2023-08-01T08:43:08;99932.66;;;17.50;82.98
48267;BME280;34088;52.232;5.196;2023-08-01T08:45:35;99934.59;;;17.70;82.62
48267;BME280;34088;52.232;5.196;2023-08-01T08:48:02;99933.03;;;17.46;81.04
48267;BME280;34088;52.232;5.196;2023-08-01T08:50:33;99933.88;;;17.46;82.58
48267;BME280;34088;52.232;5.196;2023-08-01T08:52:58;99937.16;;;17.37;80.86
48267;BME280;34088;52.232;5.196;2023-08-01T08:55:24;99940.84;;;17.35;81.10
48267;BME280;34088;52.232;5.196;2023-08-01T08:57:52;99942.06;;;17.53;81.28
48267;BME280;34088;52.232;5.196;2023-08-01T09:00:18;99938.41;;;17.77;81.60
48267;BME280;34088;52.232;5.196;2023-08-01T09:02:44;99946.25;;;17.66;79.70
48267;BME280;34088;52.232;5.196;2023-08-01T09:05:10;99950.06;;;17.62;80.03
48267;BME280;34088;52.232;5.196;2023-08-01T09:07:39;99951.00;;;17.72;79.44
48267;BME280;34088;52.232;5.196;2023-08-01T09:10:06;99962.19;;;18.07;79.40
48267;BME280;34088;52.232;5.196;2023-08-01T09:12:35;99950.13;;;18.38;77.91
48267;BME280;34088;52.232;5.196;2023-08-01T09:15:00;99954.97;;;18.53;75.41
48267;BME280;34088;52.232;5.196;2023-08-01T09:17:26;99956.91;;;18.29;76.17
48267;BME280;34088;52.232;5.196;2023-08-01T09:20:04;99969.03;;;18.30;75.23
48267;BME280;34088;52.232;5.196;2023-08-01T09:22:41;99968.88;;;18.65;76.24
48267;BME280;34088;52.232;5.196;2023-08-01T09:25:06;99962.81;;;18.53;77.29
48267;BME280;34088;52.232;5.196;2023-08-01T09:27:33;99960.72;;;18.79;75.89
48267;BME280;34088;52.232;5.196;2023-08-01T09:30:24;99967.06;;;18.97;74.82
48267;BME280;34088;52.232;5.196;2023-08-01T09:32:54;99967.94;;;18.86;74.76
48267;BME280;34088;52.232;5.196;2023-08-01T09:35:20;99979.41;;;18.54;76.10
48267;BME280;34088;52.232;5.196;2023-08-01T09:37:47;99976.78;;;18.54;74.66
48267;BME280;34088;52.232;5.196;2023-08-01T09:40:13;99984.66;;;18.43;73.11
48267;BME280;34088;52.232;5.196;2023-08-01T09:42:44;99981.69;;;18.79;72.84
48267;BME280;34088;52.232;5.196;2023-08-01T09:45:14;99976.88;;;18.63;72.17
48267;BME280;34088;52.232;5.196;2023-08-01T09:47:40;99983.19;;;18.92;71.95
48267;BME280;34088;52.232;5.196;2023-08-01T09:50:06;99980.75;;;18.69;73.20
48267;BME280;34088;52.232;5.196;2023-08-01T09:52:33;99983.19;;;18.92;73.13
48267;BME280;34088;52.232;5.196;2023-08-01T09:54:58;99990.72;;;18.86;72.55
48267;BME280;34088;52.232;5.196;2023-08-01T09:57:26;99984.88;;;19.55;73.74
48267;BME280;34088;52.232;5.196;2023-08-01T09:59:58;99994.09;;;19.70;71.19
48267;BME280;34088;52.232;5.196;2023-08-01T10:02:25;99985.16;;;19.82;72.04
48267;BME280;34088;52.232;5.196;2023-08-01T10:04:57;99989.19;;;19.86;69.14
48267;BME280;34088;52.232;5.196;2023-08-01T10:07:25;99993.31;;;20.09;69.80
48267;BME280;34088;52.232;5.196;2023-08-01T10:09:54;99999.56;;;19.87;68.78
48267;BME280;34088;52.232;5.196;2023-08-01T10:12:22;99991.78;;;20.06;68.72
48267;BME280;34088;52.232;5.196;2023-08-01T10:14:47;99996.56;;;19.71;69.26
48267;BME280;34088;52.232;5.196;2023-08-01T10:17:13;100013.66;;;19.86;67.69
48267;BME280;34088;52.232;5.196;2023-08-01T10:19:41;100001.13;;;19.99;65.93
48267;BME280;34088;52.232;5.196;2023-08-01T10:22:07;100006.19;;;20.12;65.73
48267;BME280;34088;52.232;5.196;2023-08-01T10:24:34;100004.63;;;20.39;64.65
48267;BME280;34088;52.232;5.196;2023-08-01T10:27:19;100012.72;;;20.17;65.47
48267;BME280;34088;52.232;5.196;2023-08-01T10:29:44;100013.31;;;20.30;65.60
48267;BME280;34088;52.232;5.196;2023-08-01T10:32:11;100019.19;;;20.53;65.83
48267;BME280;34088;52.232;5.196;2023-08-01T10:34:36;100016.53;;;20.04;64.49
48267;BME280;34088;52.232;5.196;2023-08-01T10:37:02;100014.13;;;20.21;65.21
48267;BME280;34088;52.232;5.196;2023-08-01T10:39:27;100023.31;;;20.06;63.68
48267;BME280;34088;52.232;5.196;2023-08-01T10:42:03;100017.75;;;20.00;63.69
48267;BME280;34088;52.232;5.196;2023-08-01T10:44:30;100026.59;;;20.29;64.35
48267;BME280;34088;52.232;5.196;2023-08-01T10:46:58;100019.25;;;20.23;64.06
48267;BME280;34088;52.232;5.196;2023-08-01T10:49:38;100029.31;;;20.18;65.86
48267;BME280;34088;52.232;5.196;2023-08-01T10:54:40;100028.03;;;20.42;66.39
48267;BME280;34088;52.232;5.196;2023-08-01T10:57:06;100033.31;;;20.61;64.48
48267;BME280;34088;52.232;5.196;2023-08-01T10:59:32;100045.19;;;20.46;65.19
48267;BME280;34088;52.232;5.196;2023-08-01T11:01:58;100025.66;;;20.49;64.75
48267;BME280;34088;52.232;5.196;2023-08-01T11:04:25;100042.41;;;20.38;65.91
48267;BME280;34088;52.232;5.196;2023-08-01T11:06:53;100033.91;;;20.25;64.20
48267;BME280;34088;52.232;5.196;2023-08-01T11:09:22;100035.88;;;20.33;64.56
48267;BME280;34088;52.232;5.196;2023-08-01T11:11:58;100054.63;;;20.58;63.97
48267;BME280;34088;52.232;5.196;2023-08-01T11:14:26;100049.22;;;20.11;64.75
48267;BME280;34088;52.232;5.196;2023-08-01T11:16:54;100047.66;;;19.78;64.83
48267;BME280;34088;52.232;5.196;2023-08-01T11:19:22;100053.75;;;20.09;64.31
48267;BME280;34088;52.232;5.196;2023-08-01T11:21:48;100052.03;;;20.28;65.28
48267;BME280;34088;52.232;5.196;2023-08-01T11:24:14;100045.34;;;20.54;63.59
48267;BME280;34088;52.232;5.196;2023-08-01T11:26:41;100046.91;;;20.27;64.64
48267;BME280;34088;52.232;5.196;2023-08-01T11:29:06;100044.53;;;20.14;64.16
48267;BME280;34088;52.232;5.196;2023-08-01T11:31:32;100053.22;;;19.94;64.75
48267;BME280;34088;52.232;5.196;2023-08-01T11:33:58;100058.31;;;19.86;63.92
48267;BME280;34088;52.232;5.196;2023-08-01T11:36:27;100051.22;;;19.77;64.34
48267;BME280;34088;52.232;5.196;2023-08-01T11:38:54;100057.88;;;19.81;64.80
48267;BME280;34088;52.232;5.196;2023-08-01T11:41:21;100063.59;;;19.66;64.57
48267;BME280;34088;52.232;5.196;2023-08-01T11:43:46;100063.84;;;19.63;64.35
48267;BME280;34088;52.232;5.196;2023-08-01T11:46:12;100067.75;;;19.68;65.06
48267;BME280;34088;52.232;5.196;2023-08-01T11:48:38;100063.31;;;19.48;62.72
48267;BME280;34088;52.232;5.196;2023-08-01T11:51:04;100070.22;;;19.60;62.52
48267;BME280;34088;52.232;5.196;2023-08-01T11:53:30;100056.97;;;19.71;61.81
48267;BME280;34088;52.232;5.196;2023-08-01T11:55:57;100064.03;;;19.91;61.09
48267;BME280;34088;52.232;5.196;2023-08-01T11:58:30;100074.25;;;19.94;62.06
48267;BME280;34088;52.232;5.196;2023-08-01T12:01:11;100065.72;;;19.72;62.77
48267;BME280;34088;52.232;5.196;2023-08-01T12:06:12;100077.34;;;19.58;62.10
48267;BME280;34088;52.232;5.196;2023-08-01T12:08:43;100079.84;;;19.80;61.96
48267;BME280;34088;52.232;5.196;2023-08-01T12:11:25;100079.78;;;19.91;62.52
48267;BME280;34088;52.232;5.196;2023-08-01T12:16:26;100082.72;;;20.18;59.88
48267;BME280;34088;52.232;5.196;2023-08-01T12:18:51;100073.44;;;20.14;59.63
48267;BME280;34088;52.232;5.196;2023-08-01T12:21:17;100086.69;;;20.43;61.02
48267;BME280;34088;52.232;5.196;2023-08-01T12:23:42;100079.25;;;20.57;59.52
48267;BME280;34088;52.232;5.196;2023-08-01T12:26:08;100079.34;;;20.46;60.77
48267;BME280;34088;52.232;5.196;2023-08-01T12:28:34;100086.88;;;20.21;61.22
48267;BME280;34088;52.232;5.196;2023-08-01T12:30:59;100097.13;;;20.03;62.71
48267;BME280;34088;52.232;5.196;2023-08-01T12:33:24;100090.53;;;19.68;62.99
48267;BME280;34088;52.232;5.196;2023-08-01T12:35:50;100094.34;;;19.54;63.44
48267;BME280;34088;52.232;5.196;2023-08-01T12:38:15;100103.06;;;19.75;62.84
48267;BME280;34088;52.232;5.196;2023-08-01T12:40:41;100094.75;;;20.00;63.13
48267;BME280;34088;52.232;5.196;2023-08-01T12:43:06;100091.56;;;20.17;61.48
48267;BME280;34088;52.232;5.196;2023-08-01T12:45:31;100101.44;;;20.04;60.80
48267;BME280;34088;52.232;5.196;2023-08-01T12:47:56;100114.25;;;19.77;60.93
48267;BME280;34088;52.232;5.196;2023-08-01T12:50:22;100117.97;;;19.54;63.23
48267;BME280;34088;52.232;5.196;2023-08-01T12:52:47;100140.00;;;18.89;69.79
48267;BME280;34088;52.232;5.196;2023-08-01T12:55:12;100146.09;;;18.67;72.57
48267;BME280;34088;52.232;5.196;2023-08-01T12:57:38;100133.16;;;18.20;71.88
48267;BME280;34088;52.232;5.196;2023-08-01T13:00:03;100139.09;;;18.00;73.28
48267;BME280;34088;52.232;5.196;2023-08-01T13:02:29;100137.00;;;18.27;72.20
48267;BME280;34088;52.232;5.196;2023-08-01T13:04:54;100132.13;;;18.12;72.80
48267;BME280;34088;52.232;5.196;2023-08-01T13:07:20;100134.25;;;18.29;73.02
48267;BME280;34088;52.232;5.196;2023-08-01T13:09:45;100134.41;;;18.49;72.89
48267;BME280;34088;52.232;5.196;2023-08-01T13:12:10;100138.47;;;18.53;72.78
48267;BME280;34088;52.232;5.196;2023-08-01T13:14:36;100129.53;;;18.45;73.09